Time;durP1;ratioP1;P1;durP2;ratioP2;P2;SDS_P1;SDS_P2;PMS_P1;PMS_P2;Temp;Humidity;BMP_temperature;BMP_pressure;BME280_temperature;BME280_humidity;BME280_pressure;Samples;Min_cycle;Max_cycle;Signal;HPM_P1;HPM_P2
2021/08/14 00:00:42;;;;;;;;;;;21.10;59.50;;;;;;5156225;27;19967;-74
2021/08/14 00:03:22;;;;;;;;;;;21.10;59.70;;;;;;5156305;27;19923;-74
2021/08/14 00:05:52;;;;;;;;;;;21.00;59.90;;;;;;5156021;27;19966;-74
2021/08/14 00:08:22;;;;;;;;;;;21.00;59.90;;;;;;5155123;27;20279;-74
2021/08/14 00:10:52;;;;;;;;;;;20.90;59.90;;;;;;5155037;27;19930;-74
2021/08/14 00:13:24;;;;;;;;;;;20.90;60.00;;;;;;5155741;27;19930;-74
2021/08/14 00:15:53;;;;;;;;;;;20.90;60.20;;;;;;5151425;27;19977;-74
2021/08/14 00:18:28;;;;;;;;;;;20.90;60.30;;;;;;5155884;27;19927;-74
2021/08/14 00:20:56;;;;;;;;;;;20.80;60.50;;;;;;5155712;27;20452;-74
2021/08/14 00:23:23;;;;;;;;;;;20.80;60.60;;;;;;5155825;27;19923;-74
2021/08/14 00:25:51;;;;;;;;;;;20.80;60.60;;;;;;5155534;27;19930;-74
2021/08/14 00:28:20;;;;;;;;;;;20.80;60.70;;;;;;5155574;27;19950;-74
2021/08/14 00:30:49;;;;;;;;;;;20.80;60.90;;;;;;5137763;27;20370;-74
2021/08/14 00:33:18;;;;;;;;;;;20.80;61.10;;;;;;5137770;27;20344;-74
2021/08/14 00:35:48;;;;;;;;;;;20.70;61.20;;;;;;5155250;27;20505;-74
2021/08/14 00:38:15;;;;;;;;;;;20.70;61.30;;;;;;5155390;27;20037;-74
2021/08/14 00:40:43;;;;;;;;;;;20.70;61.50;;;;;;5155202;27;19923;-74
2021/08/14 00:43:10;;;;;;;;;;;20.70;61.60;;;;;;5155336;27;19989;-74
2021/08/14 00:45:42;;;;;;;;;;;20.60;61.80;;;;;;5155084;27;19931;-74
2021/08/14 00:48:09;;;;;;;;;;;20.60;62.00;;;;;;5155162;27;19923;-74
2021/08/14 00:50:37;;;;;;;;;;;20.60;62.20;;;;;;5154870;27;19927;-74
2021/08/14 00:53:08;;;;;;;;;;;20.60;62.30;;;;;;5137261;27;19924;-74
2021/08/14 00:55:36;;;;;;;;;;;20.60;62.40;;;;;;5154675;27;19972;-73
2021/08/14 00:58:07;;;;;;;;;;;20.60;62.60;;;;;;5154930;27;20008;-73
2021/08/14 01:00:36;;;;;;;;;;;20.60;62.70;;;;;;5155083;27;19923;-74
2021/08/14 01:03:24;;;;;;;;;;;20.60;63.00;;;;;;5154344;27;19945;-74
2021/08/14 01:05:58;;;;;;;;;;;20.50;63.20;;;;;;5154516;27;20358;-74
2021/08/14 01:08:40;;;;;;;;;;;20.50;63.30;;;;;;5154672;27;19976;-74
2021/08/14 01:11:09;;;;;;;;;;;20.50;63.60;;;;;;5154548;27;20037;-74
2021/08/14 01:14:05;;;;;;;;;;;20.40;64.60;;;;;;5142126;27;20397;-74
2021/08/14 01:16:35;;;;;;;;;;;20.40;63.70;;;;;;5154069;27;19972;-73
2021/08/14 01:19:11;;;;;;;;;;;20.40;63.80;;;;;;5154532;27;19941;-74
2021/08/14 01:22:08;;;;;;;;;;;20.40;63.90;;;;;;5153423;27;19979;-74
2021/08/14 01:24:56;;;;;;;;;;;20.40;65.00;;;;;;5154112;27;19927;-74
2021/08/14 01:27:45;;;;;;;;;;;20.40;64.00;;;;;;5142134;27;19927;-74
2021/08/14 01:30:37;;;;;;;;;;;20.30;64.00;;;;;;5153935;27;20530;-74
2021/08/14 01:33:13;;;;;;;;;;;20.30;64.00;;;;;;5154165;27;20424;-73
2021/08/14 01:35:50;;;;;;;;;;;20.30;64.20;;;;;;5154160;27;19975;-73
2021/08/14 01:38:47;;;;;;;;;;;20.30;64.30;;;;;;5153230;27;20309;-74
2021/08/14 01:41:23;;;;;;;;;;;20.30;64.50;;;;;;5154448;27;20017;-74
2021/08/14 01:44:02;;;;;;;;;;;20.30;64.70;;;;;;5154178;27;20006;-74
2021/08/14 01:46:41;;;;;;;;;;;20.20;65.00;;;;;;5154269;27;19923;-73
2021/08/14 01:49:25;;;;;;;;;;;20.20;65.20;;;;;;5135944;27;19926;-74
2021/08/14 01:52:10;;;;;;;;;;;20.10;65.40;;;;;;5153564;27;19923;-74
2021/08/14 01:54:58;;;;;;;;;;;20.10;65.30;;;;;;5153638;27;19946;-73
2021/08/14 01:57:46;;;;;;;;;;;20.00;65.00;;;;;;5153590;27;19923;-74
2021/08/14 02:00:40;;;;;;;;;;;20.00;65.30;;;;;;5153927;27;20408;-74
2021/08/14 02:03:28;;;;;;;;;;;19.90;65.20;;;;;;5153169;27;19923;-74
2021/08/14 02:06:17;;;;;;;;;;;19.90;65.40;;;;;;5153549;27;19924;-74
2021/08/14 02:09:04;;;;;;;;;;;19.90;65.60;;;;;;5153537;27;19980;-74
2021/08/14 02:11:51;;;;;;;;;;;19.80;65.60;;;;;;5140847;27;19929;-74
2021/08/14 02:14:40;;;;;;;;;;;19.80;65.60;;;;;;5153125;27;20021;-74
2021/08/14 02:17:30;;;;;;;;;;;19.80;65.60;;;;;;5103190;28;19925;-74
2021/08/14 02:20:01;;;;;;;;;;;19.80;65.60;;;;;;5117524;27;20380;-74
2021/08/14 02:22:33;;;;;;;;;;;19.80;65.50;;;;;;5048739;28;20015;-74
2021/08/14 02:25:23;;;;;;;;;;;19.80;65.40;;;;;;5048959;27;19925;-74
2021/08/14 02:28:12;;;;;;;;;;;19.80;65.30;;;;;;5048853;27;19929;-74
2021/08/14 02:30:50;;;;;;;;;;;19.80;65.40;;;;;;5049109;28;19925;-74
2021/08/14 02:33:43;;;;;;;;;;;19.80;65.40;;;;;;5061980;27;19925;-74
2021/08/14 02:36:19;;;;;;;;;;;19.80;65.30;;;;;;5052570;27;19925;-74
2021/08/14 02:39:10;;;;;;;;;;;19.80;65.50;;;;;;5052175;28;19925;-74
2021/08/14 02:41:43;;;;;;;;;;;19.80;65.60;;;;;;5052536;28;19924;-74
2021/08/14 02:44:14;;;;;;;;;;;19.70;66.00;;;;;;5052166;28;19928;-74
2021/08/14 02:46:50;;;;;;;;;;;19.70;66.00;;;;;;5049267;27;19925;-74
2021/08/14 02:49:23;;;;;;;;;;;19.70;66.10;;;;;;5048182;28;20020;-74
2021/08/14 02:51:58;;;;;;;;;;;19.70;66.20;;;;;;5043633;28;20445;-74
2021/08/14 02:54:30;;;;;;;;;;;19.60;66.10;;;;;;5051958;28;20384;-74
2021/08/14 02:57:03;;;;;;;;;;;19.60;66.30;;;;;;5052152;28;19925;-74
2021/08/14 02:59:35;;;;;;;;;;;19.60;66.30;;;;;;5052109;28;19925;-74
2021/08/14 03:02:16;;;;;;;;;;;19.60;66.40;;;;;;5052067;28;19925;-74
2021/08/14 03:04:46;;;;;;;;;;;19.60;66.50;;;;;;5051855;28;20019;-74
2021/08/14 03:07:16;;;;;;;;;;;19.60;66.50;;;;;;5051783;28;20003;-74
2021/08/14 03:09:47;;;;;;;;;;;19.60;66.70;;;;;;5051612;28;19982;-74
2021/08/14 03:12:20;;;;;;;;;;;19.60;66.70;;;;;;5052113;28;20011;-74
2021/08/14 03:14:56;;;;;;;;;;;19.60;66.90;;;;;;5051601;28;19931;-74
2021/08/14 03:17:43;;;;;;;;;;;19.60;66.80;;;;;;5050922;27;20392;-74
2021/08/14 03:20:17;;;;;;;;;;;19.50;66.90;;;;;;5051495;28;19925;-74
2021/08/14 03:22:51;;;;;;;;;;;19.50;67.00;;;;;;5051704;28;19932;-74
2021/08/14 03:25:26;;;;;;;;;;;19.50;67.00;;;;;;5051366;28;19939;-74
2021/08/14 03:28:15;;;;;;;;;;;19.50;67.00;;;;;;5080075;27;20386;-74
2021/08/14 03:30:45;;;;;;;;;;;19.40;66.90;;;;;;5051667;28;19925;-74
2021/08/14 03:33:15;;;;;;;;;;;19.50;67.10;;;;;;5051347;28;20353;-74
2021/08/14 03:35:45;;;;;;;;;;;19.50;67.20;;;;;;5051955;28;19929;-73
2021/08/14 03:38:36;;;;;;;;;;;19.50;67.30;;;;;;5050423;28;20034;-74
2021/08/14 03:41:12;;;;;;;;;;;19.40;67.30;;;;;;5051461;28;19932;-74
2021/08/14 03:43:44;;;;;;;;;;;19.40;67.40;;;;;;5051086;28;20388;-74
2021/08/14 03:46:19;;;;;;;;;;;19.40;67.30;;;;;;5051426;28;19925;-74
2021/08/14 03:49:04;;;;;;;;;;;19.30;67.20;;;;;;5051019;28;20341;-74
2021/08/14 03:51:36;;;;;;;;;;;19.30;67.30;;;;;;5050728;27;19925;-74
2021/08/14 03:54:08;;;;;;;;;;;19.30;67.50;;;;;;5051017;28;20015;-73
2021/08/14 03:56:38;;;;;;;;;;;19.20;67.50;;;;;;5051310;28;19929;-73
2021/08/14 03:59:27;;;;;;;;;;;19.20;67.50;;;;;;5050663;28;20474;-74
2021/08/14 04:02:16;;;;;;;;;;;19.10;67.50;;;;;;5050673;28;19936;-74
2021/08/14 04:04:47;;;;;;;;;;;19.10;67.50;;;;;;5050772;28;20412;-74
2021/08/14 04:07:32;;;;;;;;;;;19.10;67.60;;;;;;5050493;28;19969;-74
2021/08/14 04:10:01;;;;;;;;;;;19.10;67.70;;;;;;5051211;28;19984;-74
2021/08/14 04:12:27;;;;;;;;;;;19.10;67.90;;;;;;5050709;28;19924;-74
2021/08/14 04:15:25;;;;;;;;;;;19.00;67.90;;;;;;5049601;28;20300;-74
2021/08/14 04:18:09;;;;;;;;;;;19.00;68.00;;;;;;5050002;28;20307;-73
2021/08/14 04:20:35;;;;;;;;;;;19.00;68.10;;;;;;5051206;28;19997;-74
2021/08/14 04:23:05;;;;;;;;;;;19.00;68.00;;;;;;5033371;28;19928;-74
2021/08/14 04:25:31;;;;;;;;;;;19.00;68.00;;;;;;5050648;28;19978;-73
2021/08/14 04:28:00;;;;;;;;;;;19.00;68.10;;;;;;5050630;28;19931;-74
2021/08/14 04:30:27;;;;;;;;;;;19.00;68.10;;;;;;5050665;28;19925;-74
2021/08/14 04:32:58;;;;;;;;;;;18.90;68.20;;;;;;5050370;28;20003;-74
2021/08/14 04:35:25;;;;;;;;;;;18.90;68.30;;;;;;5050623;28;19932;-74
2021/08/14 04:37:57;;;;;;;;;;;18.90;68.40;;;;;;5050583;28;19925;-74
2021/08/14 04:40:23;;;;;;;;;;;18.90;68.50;;;;;;5050544;28;20379;-73
2021/08/14 04:42:51;;;;;;;;;;;18.90;68.50;;;;;;5050526;28;19975;-74
2021/08/14 04:45:18;;;;;;;;;;;18.90;68.60;;;;;;5050244;28;19929;-73
2021/08/14 04:47:44;;;;;;;;;;;18.90;68.60;;;;;;5050082;28;19928;-73
2021/08/14 04:50:11;;;;;;;;;;;18.80;68.50;;;;;;5061514;27;20368;-73
2021/08/14 04:52:37;;;;;;;;;;;18.80;68.50;;;;;;5105669;27;19928;-74
2021/08/14 04:55:04;;;;;;;;;;;18.80;68.40;;;;;;5048978;28;20360;-73
2021/08/14 04:57:30;;;;;;;;;;;18.80;68.50;;;;;;5050158;28;19924;-74
2021/08/14 04:59:57;;;;;;;;;;;18.80;68.50;;;;;;5032462;28;19925;-74
2021/08/14 05:02:23;;;;;;;;;;;18.80;68.50;;;;;;5049786;28;20008;-74
2021/08/14 05:04:49;;;;;;;;;;;18.80;68.40;;;;;;5050096;28;20410;-73
2021/08/14 05:07:15;;;;;;;;;;;18.80;68.20;;;;;;5049895;28;19951;-73
2021/08/14 05:09:45;;;;;;;;;;;18.70;68.20;;;;;;5049907;28;20315;-73
2021/08/14 05:12:11;;;;;;;;;;;18.70;68.10;;;;;;5050208;28;19959;-74
2021/08/14 05:14:38;;;;;;;;;;;18.70;68.10;;;;;;5050097;28;19960;-73
2021/08/14 05:17:04;;;;;;;;;;;18.70;68.20;;;;;;5049084;28;20463;-74
2021/08/14 05:19:31;;;;;;;;;;;18.70;68.20;;;;;;5049871;28;19960;-73
2021/08/14 05:21:57;;;;;;;;;;;18.70;68.30;;;;;;5049921;28;19930;-73
2021/08/14 05:24:24;;;;;;;;;;;18.70;68.30;;;;;;5049636;28;19928;-73
2021/08/14 05:26:50;;;;;;;;;;;18.60;68.20;;;;;;5049560;28;19932;-73
2021/08/14 05:29:17;;;;;;;;;;;18.60;68.30;;;;;;5049785;28;19925;-73
2021/08/14 05:31:43;;;;;;;;;;;18.60;68.30;;;;;;5049197;28;19929;-74
2021/08/14 05:34:10;;;;;;;;;;;18.60;68.30;;;;;;5049651;28;20299;-74
2021/08/14 05:36:36;;;;;;;;;;;18.60;68.20;;;;;;5049642;28;19932;-73
2021/08/14 05:39:03;;;;;;;;;;;18.60;68.20;;;;;;5049785;28;19984;-73
2021/08/14 05:41:30;;;;;;;;;;;18.60;68.10;;;;;;5031589;28;19925;-74
2021/08/14 05:43:57;;;;;;;;;;;18.60;68.00;;;;;;5049677;28;19971;-74
2021/08/14 05:46:24;;;;;;;;;;;18.60;68.00;;;;;;5031486;28;19949;-74
2021/08/14 05:48:51;;;;;;;;;;;18.60;68.00;;;;;;5049382;28;19925;-73
2021/08/14 05:51:17;;;;;;;;;;;18.70;68.00;;;;;;5030502;28;19925;-73
2021/08/14 05:53:46;;;;;;;;;;;18.60;68.00;;;;;;5044781;28;19944;-73
2021/08/14 05:56:12;;;;;;;;;;;18.70;68.00;;;;;;5031526;28;19945;-73
2021/08/14 05:58:40;;;;;;;;;;;18.70;68.00;;;;;;5049423;28;19932;-73
2021/08/14 06:01:06;;;;;;;;;;;18.70;67.90;;;;;;5049027;28;19929;-73
2021/08/14 06:03:34;;;;;;;;;;;18.70;67.90;;;;;;5049459;28;20377;-74
2021/08/14 06:06:01;;;;;;;;;;;18.70;67.70;;;;;;5048978;28;19929;-73
2021/08/14 06:08:30;;;;;;;;;;;18.70;67.70;;;;;;5049037;28;20028;-73
2021/08/14 06:10:57;;;;;;;;;;;18.70;67.60;;;;;;5048978;28;19925;-74
2021/08/14 06:13:24;;;;;;;;;;;18.80;67.70;;;;;;5049341;28;19925;-74
2021/08/14 06:15:50;;;;;;;;;;;18.80;67.50;;;;;;5048662;28;20375;-74
2021/08/14 06:18:17;;;;;;;;;;;18.80;67.20;;;;;;5031262;28;19925;-75
2021/08/14 06:20:43;;;;;;;;;;;18.90;67.00;;;;;;5049236;28;19957;-74
2021/08/14 06:23:09;;;;;;;;;;;18.90;66.80;;;;;;5048821;28;19931;-74
2021/08/14 06:25:36;;;;;;;;;;;18.90;66.60;;;;;;5049018;28;19931;-73
2021/08/14 06:28:05;;;;;;;;;;;18.90;66.60;;;;;;5048746;28;19931;-73
2021/08/14 06:30:32;;;;;;;;;;;18.90;66.50;;;;;;5080076;28;19933;-74
2021/08/14 06:33:00;;;;;;;;;;;19.00;66.50;;;;;;5048750;28;19969;-74
2021/08/14 06:35:27;;;;;;;;;;;19.10;66.40;;;;;;5040848;28;20305;-74
2021/08/14 06:37:58;;;;;;;;;;;19.10;66.30;;;;;;5049057;28;19928;-74
2021/08/14 06:40:25;;;;;;;;;;;19.20;66.30;;;;;;5048735;28;19928;-74
2021/08/14 06:42:52;;;;;;;;;;;19.30;66.20;;;;;;5031206;28;19924;-74
2021/08/14 06:45:18;;;;;;;;;;;19.30;66.00;;;;;;5048619;28;19936;-74
2021/08/14 06:47:46;;;;;;;;;;;19.40;65.80;;;;;;5048637;28;19977;-74
2021/08/14 06:50:12;;;;;;;;;;;19.50;65.60;;;;;;5057035;27;19924;-74
2021/08/14 06:52:40;;;;;;;;;;;19.60;65.30;;;;;;5121140;27;20000;-73
2021/08/14 06:55:06;;;;;;;;;;;19.70;65.10;;;;;;5030701;28;19933;-73
2021/08/14 06:57:33;;;;;;;;;;;19.80;64.90;;;;;;5048497;28;19924;-74
2021/08/14 06:59:59;;;;;;;;;;;19.90;64.80;;;;;;5048699;28;20412;-74
2021/08/14 07:02:26;;;;;;;;;;;20.00;64.40;;;;;;5048377;28;19925;-73
2021/08/14 07:04:53;;;;;;;;;;;20.10;63.90;;;;;;5048535;28;19924;-73
2021/08/14 07:07:19;;;;;;;;;;;20.20;63.50;;;;;;5048440;28;19925;-73
2021/08/14 07:09:46;;;;;;;;;;;20.40;63.40;;;;;;5048821;28;20497;-74
2021/08/14 07:12:13;;;;;;;;;;;20.50;63.20;;;;;;5048126;28;19925;-73
2021/08/14 07:14:41;;;;;;;;;;;20.60;62.80;;;;;;5048219;28;19928;-73
2021/08/14 07:17:07;;;;;;;;;;;20.80;62.40;;;;;;5030316;28;20371;-73
2021/08/14 07:19:35;;;;;;;;;;;21.10;61.70;;;;;;5050263;28;20406;-73
2021/08/14 07:22:01;;;;;;;;;;;21.40;60.80;;;;;;5051932;28;19929;-73
2021/08/14 07:24:28;;;;;;;;;;;21.70;60.10;;;;;;5051544;28;20020;-73
2021/08/14 07:26:54;;;;;;;;;;;22.10;59.20;;;;;;5051374;28;19925;-73
2021/08/14 07:29:22;;;;;;;;;;;22.60;58.60;;;;;;5051517;28;19932;-73
2021/08/14 07:31:48;;;;;;;;;;;23.10;57.10;;;;;;5051555;28;19932;-73
2021/08/14 07:34:14;;;;;;;;;;;23.60;55.60;;;;;;5051516;28;19925;-73
2021/08/14 07:36:41;;;;;;;;;;;24.10;54.80;;;;;;5051557;28;19928;-73
2021/08/14 07:39:08;;;;;;;;;;;24.70;53.60;;;;;;5051228;28;20325;-73
2021/08/14 07:41:34;;;;;;;;;;;25.40;52.50;;;;;;5051001;28;19977;-73
2021/08/14 07:44:00;;;;;;;;;;;26.10;51.60;;;;;;5034484;28;19967;-73
2021/08/14 07:46:27;;;;;;;;;;;26.80;50.30;;;;;;5051265;28;20015;-73
2021/08/14 07:48:55;;;;;;;;;;;27.50;48.30;;;;;;5051440;28;19925;-74
2021/08/14 07:51:21;;;;;;;;;;;28.00;46.00;;;;;;5051363;28;19929;-73
2021/08/14 07:53:48;;;;;;;;;;;28.40;45.40;;;;;;5050892;28;19925;-73
2021/08/14 07:56:15;;;;;;;;;;;28.80;44.70;;;;;;5155039;27;20398;-75
2021/08/14 07:58:42;;;;;;;;;;;29.20;44.00;;;;;;5156646;27;19927;-74
2021/08/14 08:01:09;;;;;;;;;;;29.50;43.00;;;;;;5156280;27;19926;-74
2021/08/14 08:03:35;;;;;;;;;;;29.80;42.20;;;;;;5154905;27;20382;-74
2021/08/14 08:06:02;;;;;;;;;;;30.00;41.40;;;;;;5156101;27;19923;-73
2021/08/14 08:08:28;;;;;;;;;;;30.20;40.90;;;;;;5155938;27;19927;-73
2021/08/14 08:10:54;;;;;;;;;;;30.40;39.40;;;;;;5155826;27;20049;-75
2021/08/14 08:13:22;;;;;;;;;;;30.50;39.20;;;;;;5156197;27;20017;-74
2021/08/14 08:15:48;;;;;;;;;;;30.70;38.70;;;;;;5155738;27;19929;-74
2021/08/14 08:18:16;;;;;;;;;;;30.90;37.90;;;;;;5031079;28;20338;-74
2021/08/14 08:20:43;;;;;;;;;;;31.20;37.10;;;;;;5031263;28;19929;-74
2021/08/14 08:23:11;;;;;;;;;;;31.40;37.40;;;;;;5030749;28;20119;-73
2021/08/14 08:25:37;;;;;;;;;;;31.70;38.00;;;;;;5030512;28;19981;-74
2021/08/14 08:28:07;;;;;;;;;;;31.90;36.50;;;;;;5060232;27;20404;-74
2021/08/14 08:30:35;;;;;;;;;;;32.20;35.60;;;;;;5133726;27;19923;-74
2021/08/14 08:33:06;;;;;;;;;;;32.30;35.20;;;;;;5134581;27;19923;-74
2021/08/14 08:35:33;;;;;;;;;;;32.40;34.00;;;;;;5134707;27;19927;-73
2021/08/14 08:38:03;;;;;;;;;;;32.10;34.20;;;;;;5134581;27;19927;-73
2021/08/14 08:40:31;;;;;;;;;;;32.10;34.00;;;;;;5116078;27;20299;-74
2021/08/14 08:43:06;;;;;;;;;;;32.10;33.60;;;;;;5116966;27;19934;-74
2021/08/14 08:45:33;;;;;;;;;;;31.70;33.10;;;;;;5134873;27;19954;-73
2021/08/14 08:48:18;;;;;;;;;;;31.50;34.70;;;;;;5133149;27;19985;-73
2021/08/14 08:50:46;;;;;;;;;;;31.90;35.40;;;;;;5133623;27;19924;-74
2021/08/14 08:53:17;;;;;;;;;;;32.30;34.20;;;;;;5080045;27;19930;-73
2021/08/14 08:55:45;;;;;;;;;;;32.50;33.20;;;;;;5133828;27;19973;-73
2021/08/14 08:58:21;;;;;;;;;;;32.60;33.90;;;;;;5133312;27;19927;-74
2021/08/14 09:00:49;;;;;;;;;;;32.80;33.10;;;;;;5134282;27;19980;-74
2021/08/14 09:03:15;;;;;;;;;;;33.20;33.60;;;;;;5134081;27;19923;-74
2021/08/14 09:05:46;;;;;;;;;;;33.40;32.40;;;;;;5133787;27;20367;-74
2021/08/14 09:08:18;;;;;;;;;;;33.60;32.30;;;;;;5133774;27;20311;-74
2021/08/14 09:10:45;;;;;;;;;;;33.80;32.60;;;;;;5134054;27;19970;-76
2021/08/14 09:13:15;;;;;;;;;;;34.00;32.10;;;;;;5133661;27;19924;-74
2021/08/14 09:15:43;;;;;;;;;;;34.40;32.20;;;;;;5134103;27;19923;-74
2021/08/14 09:18:17;;;;;;;;;;;34.70;31.50;;;;;;5047411;28;20451;-74
2021/08/14 09:20:48;;;;;;;;;;;35.00;31.00;;;;;;5154548;27;19923;-74
2021/08/14 09:23:16;;;;;;;;;;;35.40;31.40;;;;;;5154343;27;19923;-73
2021/08/14 09:25:43;;;;;;;;;;;35.70;30.00;;;;;;5154525;27;19930;-74
2021/08/14 09:28:10;;;;;;;;;;;35.70;29.10;;;;;;5154076;27;19931;-74
2021/08/14 09:30:53;;;;;;;;;;;35.40;29.20;;;;;;5154382;27;19923;-74
2021/08/14 09:33:22;;;;;;;;;;;35.30;29.90;;;;;;5154009;27;20457;-74
2021/08/14 09:35:56;;;;;;;;;;;35.30;29.80;;;;;;5153766;27;19923;-74
2021/08/14 09:38:23;;;;;;;;;;;35.10;29.60;;;;;;5153614;27;19988;-74
2021/08/14 09:40:49;;;;;;;;;;;35.20;30.30;;;;;;5153632;27;20402;-74
2021/08/14 09:43:32;;;;;;;;;;;35.50;29.90;;;;;;5154017;27;19930;-74
2021/08/14 09:45:58;;;;;;;;;;;35.50;29.10;;;;;;5154385;27;19923;-74
2021/08/14 09:48:25;;;;;;;;;;;35.10;29.70;;;;;;5153850;27;19927;-74
2021/08/14 09:50:52;;;;;;;;;;;35.00;30.10;;;;;;5153930;27;20267;-74
2021/08/14 09:53:21;;;;;;;;;;;35.20;30.30;;;;;;5153417;27;19980;-74
2021/08/14 09:55:53;;;;;;;;;;;35.20;29.60;;;;;;5153640;27;19930;-74
2021/08/14 09:58:24;;;;;;;;;;;35.10;29.60;;;;;;5153791;27;19923;-74
2021/08/14 10:00:52;;;;;;;;;;;35.10;29.60;;;;;;5153863;27;19924;-74
2021/08/14 10:03:20;;;;;;;;;;;35.10;29.90;;;;;;5154032;27;20400;-74
2021/08/14 10:05:47;;;;;;;;;;;35.40;30.00;;;;;;5153587;27;19923;-74
2021/08/14 10:08:14;;;;;;;;;;;36.00;29.80;;;;;;5153886;27;19946;-74
2021/08/14 10:10:41;;;;;;;;;;;36.60;28.90;;;;;;5153962;27;19965;-74
2021/08/14 10:13:09;;;;;;;;;;;37.00;29.00;;;;;;5154044;27;19927;-74
2021/08/14 10:15:36;;;;;;;;;;;37.60;28.50;;;;;;5153632;27;19923;-74
2021/08/14 10:18:03;;;;;;;;;;;37.80;27.20;;;;;;5153282;27;19923;-74
2021/08/14 10:20:31;;;;;;;;;;;37.40;26.80;;;;;;5154052;27;20085;-74
2021/08/14 10:23:03;;;;;;;;;;;37.00;27.30;;;;;;5153459;27;19988;-74
2021/08/14 10:25:31;;;;;;;;;;;36.10;27.50;;;;;;5135110;27;20001;-75
2021/08/14 10:28:00;;;;;;;;;;;35.10;28.60;;;;;;5153780;27;19924;-74
2021/08/14 10:30:38;;;;;;;;;;;34.10;30.00;;;;;;5153812;27;19923;-74
2021/08/14 10:33:27;;;;;;;;;;;33.40;31.40;;;;;;5153922;27;19934;-74
2021/08/14 10:35:57;;;;;;;;;;;32.70;31.70;;;;;;5153466;27;19923;-74
2021/08/14 10:38:38;;;;;;;;;;;32.10;32.80;;;;;;5153391;27;19927;-74
2021/08/14 10:41:05;;;;;;;;;;;31.70;33.70;;;;;;5153699;27;19931;-74
2021/08/14 10:43:51;;;;;;;;;;;31.30;34.70;;;;;;5153404;27;20013;-74
2021/08/14 10:46:37;;;;;;;;;;;31.10;35.30;;;;;;5153838;27;19923;-74
2021/08/14 10:49:04;;;;;;;;;;;30.80;35.60;;;;;;5141040;27;19934;-74
2021/08/14 10:51:50;;;;;;;;;;;30.60;36.40;;;;;;5153121;27;19973;-74
2021/08/14 10:54:27;;;;;;;;;;;30.50;36.50;;;;;;5155793;27;20264;-74
2021/08/14 10:57:00;;;;;;;;;;;30.60;37.30;;;;;;5157212;27;20378;-74
2021/08/14 10:59:37;;;;;;;;;;;30.70;37.30;;;;;;5157416;27;19923;-74
2021/08/14 11:02:06;;;;;;;;;;;30.70;34.60;;;;;;5138607;27;19959;-74
2021/08/14 11:04:40;;;;;;;;;;;30.30;35.20;;;;;;5138048;27;19923;-74
2021/08/14 11:07:21;;;;;;;;;;;30.00;36.10;;;;;;5157282;27;19934;-74
2021/08/14 11:09:48;;;;;;;;;;;29.70;36.60;;;;;;5143417;27;19927;-74
2021/08/14 11:12:33;;;;;;;;;;;29.50;37.60;;;;;;5157314;27;20374;-74
2021/08/14 11:15:23;;;;;;;;;;;29.20;37.10;;;;;;5144095;27;19942;-74
2021/08/14 11:17:51;;;;;;;;;;;29.10;37.70;;;;;;5150746;27;19934;-74
2021/08/14 11:20:24;;;;;;;;;;;29.00;38.10;;;;;;5156654;27;20377;-74
2021/08/14 11:22:55;;;;;;;;;;;28.90;37.60;;;;;;5138538;27;19930;-74
2021/08/14 11:25:24;;;;;;;;;;;28.90;37.60;;;;;;5157026;27;19955;-74
2021/08/14 11:27:56;;;;;;;;;;;28.90;37.10;;;;;;5156936;27;19934;-74
2021/08/14 11:30:26;;;;;;;;;;;28.80;37.70;;;;;;5156381;27;19930;-74
2021/08/14 11:32:53;;;;;;;;;;;28.80;38.40;;;;;;5156561;27;19976;-74
2021/08/14 11:35:21;;;;;;;;;;;28.80;38.50;;;;;;5156476;27;20275;-74
2021/08/14 11:37:51;;;;;;;;;;;28.90;38.60;;;;;;5155772;27;19927;-74
2021/08/14 11:40:25;;;;;;;;;;;29.00;38.20;;;;;;5137684;27;19930;-74
2021/08/14 11:42:53;;;;;;;;;;;29.10;38.30;;;;;;5156498;27;20397;-74
2021/08/14 11:45:20;;;;;;;;;;;29.20;38.00;;;;;;5156773;27;19930;-74
2021/08/14 11:47:54;;;;;;;;;;;29.30;38.20;;;;;;5156397;27;20017;-74
2021/08/14 11:50:21;;;;;;;;;;;29.40;38.20;;;;;;5155991;27;19927;-74
2021/08/14 11:52:48;;;;;;;;;;;29.50;38.30;;;;;;5156443;27;20705;-74
2021/08/14 11:55:15;;;;;;;;;;;29.60;38.10;;;;;;5156395;27;19923;-74
2021/08/14 11:57:42;;;;;;;;;;;29.70;38.30;;;;;;5137311;27;20366;-75
2021/08/14 12:00:17;;;;;;;;;;;29.80;38.80;;;;;;5156525;27;19966;-74
2021/08/14 12:02:46;;;;;;;;;;;29.90;36.80;;;;;;5155982;27;19924;-75
2021/08/14 12:05:21;;;;;;;;;;;29.70;35.30;;;;;;5156018;27;20022;-74
2021/08/14 12:07:48;;;;;;;;;;;29.60;35.30;;;;;;5155698;27;20022;-74
2021/08/14 12:10:19;;;;;;;;;;;29.50;35.60;;;;;;5156008;27;19923;-74
2021/08/14 12:12:55;;;;;;;;;;;29.50;36.80;;;;;;5156138;27;19967;-74
2021/08/14 12:15:33;;;;;;;;;;;29.50;37.20;;;;;;5155991;27;19927;-74
2021/08/14 12:18:33;;;;;;;;;;;29.50;37.40;;;;;;5155263;27;20087;-74
2021/08/14 12:21:02;;;;;;;;;;;29.60;37.60;;;;;;5155917;27;19945;-75
2021/08/14 12:23:32;;;;;;;;;;;29.60;36.80;;;;;;5155704;27;19976;-75
2021/08/14 12:26:09;;;;;;;;;;;29.60;37.00;;;;;;5155898;27;19923;-74
2021/08/14 12:28:37;;;;;;;;;;;29.60;38.00;;;;;;5155618;27;20279;-74
2021/08/14 12:31:14;;;;;;;;;;;29.50;38.70;;;;;;5155568;27;19979;-75
2021/08/14 12:33:53;;;;;;;;;;;29.60;39.50;;;;;;5155242;27;19923;-75
2021/08/14 12:36:36;;;;;;;;;;;29.60;40.00;;;;;;5155342;27;19929;-75
2021/08/14 12:39:04;;;;;;;;;;;29.60;40.10;;;;;;5136728;27;19950;-74
2021/08/14 12:41:35;;;;;;;;;;;29.60;39.50;;;;;;5155365;27;19934;-74
2021/08/14 12:44:04;;;;;;;;;;;29.70;39.60;;;;;;5155219;27;20305;-74
2021/08/14 12:46:31;;;;;;;;;;;29.70;39.30;;;;;;5155192;27;20026;-74
2021/08/14 12:49:20;;;;;;;;;;;29.60;38.90;;;;;;5155306;27;20370;-74
2021/08/14 12:51:53;;;;;;;;;;;29.50;38.40;;;;;;5154878;27;19985;-74
2021/08/14 12:54:21;;;;;;;;;;;29.50;39.00;;;;;;5155376;27;19927;-75
2021/08/14 12:56:47;;;;;;;;;;;29.60;38.80;;;;;;5155078;27;20398;-75
2021/08/14 12:59:13;;;;;;;;;;;29.60;38.40;;;;;;5155152;27;19967;-75
2021/08/14 13:01:50;;;;;;;;;;;29.60;38.60;;;;;;5154728;27;20013;-75
2021/08/14 13:04:17;;;;;;;;;;;29.50;38.80;;;;;;5154700;27;19964;-75
2021/08/14 13:06:43;;;;;;;;;;;29.50;38.80;;;;;;5155237;27;19923;-75
2021/08/14 13:09:10;;;;;;;;;;;29.50;38.70;;;;;;5154777;27;19923;-75
2021/08/14 13:11:36;;;;;;;;;;;29.50;37.80;;;;;;5155029;27;19930;-76
2021/08/14 13:14:02;;;;;;;;;;;29.50;37.50;;;;;;5154882;27;19972;-75
2021/08/14 13:16:28;;;;;;;;;;;29.50;37.60;;;;;;5154167;27;20382;-75
2021/08/14 13:18:56;;;;;;;;;;;29.50;37.60;;;;;;5154764;27;19970;-78
2021/08/14 13:21:22;;;;;;;;;;;29.50;37.10;;;;;;5154674;27;19927;-77
2021/08/14 13:23:49;;;;;;;;;;;29.50;37.10;;;;;;5154748;27;20522;-75
2021/08/14 13:26:15;;;;;;;;;;;29.50;37.40;;;;;;5154433;27;19929;-76
2021/08/14 13:28:42;;;;;;;;;;;29.50;37.70;;;;;;5154566;27;19924;-75
2021/08/14 13:31:08;;;;;;;;;;;29.50;37.10;;;;;;5154198;27;19923;-75
2021/08/14 13:33:35;;;;;;;;;;;29.50;37.00;;;;;;5154342;27;20014;-75
2021/08/14 13:36:01;;;;;;;;;;;29.50;36.30;;;;;;5136183;27;19923;-75
2021/08/14 13:38:28;;;;;;;;;;;29.50;36.30;;;;;;5154290;27;19966;-75
2021/08/14 13:40:55;;;;;;;;;;;29.50;35.70;;;;;;5154216;27;19975;-75
2021/08/14 13:43:22;;;;;;;;;;;29.50;35.90;;;;;;5154686;27;19934;-75
2021/08/14 13:45:49;;;;;;;;;;;29.50;36.70;;;;;;5154002;27;20302;-75
2021/08/14 13:48:16;;;;;;;;;;;29.50;37.10;;;;;;5154292;27;19923;-75
2021/08/14 13:50:43;;;;;;;;;;;29.50;36.90;;;;;;5154064;27;19923;-75
2021/08/14 13:53:12;;;;;;;;;;;29.50;36.80;;;;;;5154002;27;19962;-75
2021/08/14 13:55:39;;;;;;;;;;;29.40;36.10;;;;;;5153941;27;19927;-76
2021/08/14 13:58:06;;;;;;;;;;;29.50;35.70;;;;;;5153922;27;20038;-75
2021/08/14 14:00:33;;;;;;;;;;;29.50;35.70;;;;;;5153815;27;20430;-75
2021/08/14 14:03:03;;;;;;;;;;;29.40;36.50;;;;;;5154036;27;20342;-75
2021/08/14 14:05:31;;;;;;;;;;;29.40;35.80;;;;;;5153911;27;20397;-75
2021/08/14 14:07:59;;;;;;;;;;;29.40;35.70;;;;;;5154004;27;19923;-75
2021/08/14 14:10:27;;;;;;;;;;;29.30;35.60;;;;;;5153765;27;20295;-75
2021/08/14 14:12:53;;;;;;;;;;;29.30;36.10;;;;;;5153755;27;20005;-75
2021/08/14 14:15:21;;;;;;;;;;;29.30;37.10;;;;;;5154112;27;19931;-75
2021/08/14 14:17:47;;;;;;;;;;;29.30;36.80;;;;;;5153215;27;20298;-74
2021/08/14 14:20:14;;;;;;;;;;;29.30;36.90;;;;;;5154237;27;19946;-75
2021/08/14 14:22:46;;;;;;;;;;;29.30;37.50;;;;;;5154165;27;19932;-75
2021/08/14 14:25:14;;;;;;;;;;;29.30;36.80;;;;;;5154083;27;20393;-75
2021/08/14 14:27:42;;;;;;;;;;;29.30;36.80;;;;;;5153316;27;20291;-75
2021/08/14 14:30:11;;;;;;;;;;;29.30;36.50;;;;;;5157105;27;19923;-75
2021/08/14 14:32:38;;;;;;;;;;;29.30;36.40;;;;;;5158048;27;19935;-75
2021/08/14 14:35:13;;;;;;;;;;;29.30;36.10;;;;;;5157671;27;20233;-75
2021/08/14 14:38:05;;;;;;;;;;;29.30;35.90;;;;;;5157679;27;20002;-75
2021/08/14 14:40:34;;;;;;;;;;;29.30;36.00;;;;;;5158133;27;19972;-74